Capitol Logistics 576




RJBB
Kansai International Airport
Osaka, JP
RJAA
Tokyo-Narita International Airport
Tokyo, JP

Activity Log

Date Flight Route Aircraft Duration
05/22/2022 CPX576 KITAN2 TOMOH GOBOH TONDA KEC Y43 ISEBI Y81 RUTAS RUTASN B744 1h 18m

Route Details

Aircraft Information
Group: Trans-Pacific Ops
Types: B744,B763,MD11
Route Data
Demand: V
Distance: 265nm
Duration: 1h 19m
Recm'd Route: SUSAN2 TOMOH GOBOH TONDA KEC Y43 ISEBI Y81 RUTAS RUTASG
Origin Wx: RJBB 270500Z 20006KT 160V250 9999 FEW020 BKN/// 24/17 Q1000 NOSIG
Dest. Wx: RJAA 270500Z 14012KT 9999 FEW010 SCT100 BKN/// 22/20 Q0997 NOSIG RMK 2CU010 3AC100 A2946
Notes:

Financial History
Total Freight: 83,213lbs
Average Load: 83,213lbs/flt
Fuel Used: 22,783lbs
Avg. Fuel Used: 22,783lbs/flt
Fuel Expense: $15,948
Avg. Fuel Expense: $15,948
Avg. Fuel Cost: $0.70/lbs
Total Gross Income: $230,500
Pilot Pay: $239
Total Expenses: $31,490
Total Revenue: $182,778
Average Revenue: $230,500.02